createdAt,value
2023-01-07T00:01:53.761Z,9.90
2023-01-07T00:06:55.399Z,9.90
2023-01-07T00:11:57.262Z,9.90
2023-01-07T00:16:59.091Z,11.30
2023-01-07T00:22:00.774Z,9.90
2023-01-07T00:27:02.554Z,9.90
2023-01-07T00:32:04.463Z,9.80
2023-01-07T00:37:38.092Z,9.80
2023-01-07T00:42:55.058Z,9.90
2023-01-07T00:47:58.981Z,9.90
2023-01-07T00:53:01.065Z,9.90
2023-01-07T00:58:02.818Z,9.90
2023-01-07T01:03:04.446Z,9.80
2023-01-07T01:08:07.166Z,9.80
2023-01-07T01:13:18.030Z,9.80
2023-01-07T01:18:19.896Z,9.70
2023-01-07T01:23:22.112Z,9.80
2023-01-07T01:28:23.791Z,9.80
2023-01-07T01:33:25.612Z,9.80
2023-01-07T01:38:27.260Z,9.80
2023-01-07T01:43:35.338Z,9.70
2023-01-07T01:48:39.911Z,9.60
2023-01-07T01:53:41.860Z,9.60
2023-01-07T01:58:47.916Z,9.70
2023-01-07T02:03:50.583Z,9.70
2023-01-07T02:08:52.653Z,9.60
2023-01-07T02:14:20.213Z,9.60
2023-01-07T02:20:00.962Z,9.60
2023-01-07T02:25:18.996Z,9.60
2023-01-07T02:30:58.513Z,9.70
2023-01-07T02:36:08.839Z,9.70
2023-01-07T02:41:17.382Z,9.30
2023-01-07T02:46:19.028Z,9.60
2023-01-07T02:51:20.756Z,9.70
2023-01-07T02:56:25.143Z,9.60
2023-01-07T03:01:48.121Z,9.50
2023-01-07T03:07:06.406Z,9.50
2023-01-07T03:12:32.439Z,9.50
2023-01-07T03:17:41.273Z,9.60
2023-01-07T03:22:45.292Z,9.60
2023-01-07T03:27:50.584Z,9.60
2023-01-07T03:32:54.377Z,9.70
2023-01-07T03:37:57.538Z,9.70
2023-01-07T03:42:59.608Z,9.70
2023-01-07T03:48:01.518Z,9.70
2023-01-07T03:53:03.551Z,10.30
2023-01-07T03:58:05.380Z,9.70
2023-01-07T04:03:07.133Z,9.70
2023-01-07T04:08:08.852Z,9.40
2023-01-07T04:13:10.582Z,9.50
2023-01-07T04:18:12.299Z,9.60
2023-01-07T04:23:15.084Z,9.50
2023-01-07T04:28:16.804Z,9.60
2023-01-07T04:33:18.476Z,9.70
2023-01-07T04:38:20.127Z,9.60
2023-01-07T04:43:21.983Z,9.60
2023-01-07T04:48:23.762Z,9.40
2023-01-07T04:53:25.508Z,9.60
2023-01-07T04:58:27.299Z,9.50
2023-01-07T05:03:29.383Z,10.00
2023-01-07T05:08:31.136Z,9.60
2023-01-07T05:13:35.253Z,9.60
2023-01-07T05:18:36.987Z,9.70
2023-01-07T05:23:39.316Z,10.60
2023-01-07T05:28:41.011Z,9.70
2023-01-07T05:33:42.692Z,9.70
2023-01-07T05:38:44.352Z,9.80
2023-01-07T05:43:46.008Z,9.60
2023-01-07T05:48:47.699Z,9.50
2023-01-07T05:53:49.383Z,9.60
2023-01-07T05:58:51.049Z,9.50
2023-01-07T06:03:52.843Z,9.50
2023-01-07T06:08:54.683Z,9.60
2023-01-07T06:13:56.431Z,9.60
2023-01-07T06:18:58.152Z,9.70
2023-01-07T06:23:59.828Z,9.50
2023-01-07T06:29:01.521Z,9.40
2023-01-07T06:34:03.286Z,9.50
2023-01-07T06:39:05.133Z,9.60
2023-01-07T06:44:07.041Z,9.60
2023-01-07T06:49:08.851Z,9.40
2023-01-07T06:54:11.003Z,9.40
2023-01-07T06:59:12.853Z,9.60
2023-01-07T07:04:14.539Z,9.50
2023-01-07T07:09:16.244Z,9.70
2023-01-07T07:14:17.883Z,9.50
2023-01-07T07:19:19.662Z,9.50
2023-01-07T07:24:21.657Z,9.60
2023-01-07T07:29:23.407Z,9.60
2023-01-07T07:34:25.163Z,9.60
2023-01-07T07:39:26.873Z,9.70
2023-01-07T07:44:28.546Z,9.80
2023-01-07T07:49:30.649Z,9.90
2023-01-07T07:54:32.380Z,9.90
2023-01-07T07:59:34.214Z,9.80
2023-01-07T08:04:35.920Z,9.90
2023-01-07T08:09:37.756Z,9.80
2023-01-07T08:14:39.415Z,9.90
2023-01-07T08:19:41.067Z,9.90
2023-01-07T08:24:42.715Z,9.90
2023-01-07T08:29:44.928Z,10.00
2023-01-07T08:34:46.603Z,10.10
2023-01-07T08:39:48.270Z,10.10
2023-01-07T08:44:50.279Z,10.10
2023-01-07T08:49:52.013Z,10.20
2023-01-07T08:54:53.699Z,10.10
2023-01-07T08:59:55.406Z,11.10
2023-01-07T09:04:57.086Z,10.30
2023-01-07T09:09:58.767Z,10.40
2023-01-07T09:15:00.664Z,10.40
2023-01-07T09:20:03.745Z,10.50
2023-01-07T09:25:06.129Z,11.40
2023-01-07T09:30:09.470Z,10.50
2023-01-07T09:35:12.104Z,10.60
2023-01-07T09:40:43.361Z,10.60
2023-01-07T09:45:54.925Z,10.60
2023-01-07T09:51:05.073Z,10.80
2023-01-07T09:56:37.709Z,12.10
2023-01-07T10:02:13.752Z,10.90
2023-01-07T10:07:21.254Z,11.00
2023-01-07T10:12:37.801Z,10.70
2023-01-07T10:18:01.213Z,10.90
2023-01-07T10:23:21.774Z,11.00
2023-01-07T10:28:32.405Z,11.00
2023-01-07T10:33:34.635Z,10.90
2023-01-07T10:38:42.375Z,10.90
2023-01-07T10:43:59.877Z,12.80
2023-01-07T10:49:46.418Z,11.20
2023-01-07T10:54:57.401Z,11.60
2023-01-07T11:00:04.400Z,11.90
2023-01-07T11:05:06.442Z,12.70
2023-01-07T11:10:17.597Z,13.10
2023-01-07T11:15:41.441Z,13.10
2023-01-07T11:20:49.205Z,13.80
2023-01-07T11:25:51.008Z,16.20
2023-01-07T11:30:58.974Z,16.30
2023-01-07T11:36:01.004Z,18.90
2023-01-07T11:41:05.404Z,22.30
2023-01-07T11:46:20.403Z,25.00
2023-01-07T11:51:24.708Z,25.50
2023-01-07T11:56:29.786Z,26.80
2023-01-07T12:01:45.293Z,24.80
2023-01-07T12:06:50.460Z,27.70
2023-01-07T12:11:54.800Z,24.80
2023-01-07T12:17:07.058Z,24.80
2023-01-07T12:22:11.759Z,28.00
2023-01-07T12:27:20.718Z,27.30
2023-01-07T12:32:56.718Z,27.00
2023-01-07T12:38:38.509Z,22.00
2023-01-07T12:49:07.504Z,18.20
2023-01-07T12:54:21.505Z,16.30
2023-01-07T13:05:20.404Z,14.40
2023-01-07T13:10:28.979Z,14.40
2023-01-07T13:15:35.041Z,14.00
2023-01-07T13:21:02.815Z,13.60
2023-01-07T13:26:24.014Z,13.90
2023-01-07T13:31:37.772Z,13.70
2023-01-07T13:36:45.470Z,13.80
2023-01-07T13:42:07.687Z,13.70
2023-01-07T13:47:11.565Z,13.40
2023-01-07T13:52:19.779Z,14.40
2023-01-07T13:57:24.686Z,15.00
2023-01-07T14:02:47.320Z,19.70
2023-01-07T14:07:56.364Z,23.30
2023-01-07T14:13:33.707Z,24.30
2023-01-07T14:19:00.173Z,24.90
2023-01-07T14:24:25.288Z,25.60
2023-01-07T14:29:47.260Z,26.10
2023-01-07T14:35:29.530Z,24.90
2023-01-07T14:40:34.331Z,25.10
2023-01-07T14:45:42.083Z,25.60
2023-01-07T14:51:01.702Z,25.00
2023-01-07T14:56:40.868Z,24.70
2023-01-07T15:01:45.972Z,23.20
2023-01-07T15:06:48.703Z,19.80
2023-01-07T15:12:11.841Z,22.10
2023-01-07T15:17:15.476Z,20.40
2023-01-07T15:22:44.059Z,19.30
2023-01-07T15:28:13.828Z,14.20
2023-01-07T15:33:44.864Z,14.10
2023-01-07T15:38:50.737Z,13.50
2023-01-07T15:43:53.617Z,12.30
2023-01-07T15:49:13.240Z,12.20
2023-01-07T15:54:34.344Z,11.20
2023-01-07T15:59:42.709Z,11.30
2023-01-07T16:04:48.471Z,11.10
2023-01-07T16:09:51.388Z,11.00
2023-01-07T16:14:53.145Z,10.50
2023-01-07T16:20:22.391Z,10.50
2023-01-07T16:25:40.468Z,10.10
2023-01-07T16:30:43.640Z,10.00
2023-01-07T16:35:48.026Z,10.10
2023-01-07T16:40:51.553Z,11.00
2023-01-07T16:46:08.368Z,10.00
2023-01-07T16:51:42.263Z,9.90
2023-01-07T16:57:10.188Z,9.90
2023-01-07T17:02:41.988Z,9.80
2023-01-07T17:08:18.657Z,9.60
2023-01-07T17:13:23.071Z,9.50
2023-01-07T17:18:29.773Z,9.10
2023-01-07T17:23:33.655Z,9.10
2023-01-07T17:28:48.233Z,8.70
2023-01-07T17:33:55.264Z,8.80
2023-01-07T17:49:02.016Z,9.10
2023-01-07T17:54:04.377Z,9.00
2023-01-07T17:59:06.107Z,8.90
2023-01-07T18:04:08.051Z,9.00
2023-01-07T18:09:11.445Z,9.00
2023-01-07T18:14:14.736Z,9.00
2023-01-07T18:19:16.544Z,9.10
2023-01-07T18:24:20.361Z,8.60
2023-01-07T18:29:22.111Z,8.80
2023-01-07T18:34:23.993Z,8.40
2023-01-07T18:39:25.889Z,8.30
2023-01-07T18:44:27.759Z,8.50
2023-01-07T18:49:29.800Z,8.60
2023-01-07T19:09:41.626Z,7.70
2023-01-07T19:14:43.407Z,7.70
2023-01-07T19:34:54.951Z,7.50
2023-01-07T19:39:56.928Z,7.30
2023-01-07T19:50:01.307Z,7.00
2023-01-07T19:55:03.192Z,7.10
2023-01-07T20:00:05.802Z,6.80
2023-01-07T20:10:12.089Z,6.50
2023-01-07T20:20:16.283Z,6.40
2023-01-07T20:25:18.180Z,6.40
2023-01-07T20:30:19.949Z,6.50
2023-01-07T20:35:22.804Z,8.10
2023-01-07T20:40:24.560Z,6.40
2023-01-07T20:45:26.348Z,6.50
2023-01-07T20:50:30.737Z,6.40
2023-01-07T20:55:33.600Z,6.80
2023-01-07T21:00:35.754Z,6.20
2023-01-07T21:05:38.397Z,7.40
2023-01-07T21:10:40.398Z,6.60
2023-01-07T21:20:45.096Z,6.50
2023-01-07T21:25:48.222Z,6.40
2023-01-07T21:30:50.209Z,6.50
2023-01-07T21:35:52.148Z,6.00
2023-01-07T21:40:54.132Z,6.00
2023-01-07T21:46:00.069Z,6.10
2023-01-07T21:51:03.955Z,6.20
2023-01-07T21:56:11.674Z,6.20
2023-01-07T22:01:14.508Z,6.10
2023-01-07T22:06:21.654Z,6.00
2023-01-07T22:11:23.801Z,5.80
2023-01-07T22:16:29.258Z,6.70
2023-01-07T22:21:31.901Z,5.60
2023-01-07T22:26:33.701Z,5.60
2023-01-07T22:31:36.816Z,7.50
2023-01-07T22:36:56.684Z,5.70
2023-01-07T22:42:02.916Z,5.60
2023-01-07T22:47:09.450Z,5.70
2023-01-07T22:52:12.237Z,5.80
2023-01-07T23:07:18.947Z,5.50
2023-01-07T23:12:20.734Z,6.20
2023-01-07T23:17:22.648Z,7.50
2023-01-07T23:22:24.425Z,5.80
2023-01-07T23:32:28.338Z,5.60
2023-01-07T23:37:30.216Z,6.60
2023-01-07T23:42:32.108Z,5.40
2023-01-07T23:47:34.523Z,5.60
2023-01-07T23:52:36.354Z,5.60
2023-01-07T23:57:38.209Z,8.00
